Terminal Aerodrome Forecast
Issued by NWS Jackson, MS

Home | Current Version | Previous Version | Text Only | Print | Product List | Glossary On
Versions: 1 2 3 4 5 6 7 8 9 10 11 12 13
057
FTUS44 KJAN 261125
TAFJAN
TAF
KJAN 261125Z 2612/2712 00000KT 6SM BR FEW050
     FM261300 09003KT P6SM FEW020 SCT250
     FM261900 08007KT P6SM VCTS SCT030 BKN050CB
     FM270000 05004KT P6SM FEW050 SCT250
     FM271000 VRB03KT 6SM BR FEW250=

USA.gov is the U.S. government's official web portal to all federal, state and local government web resources and services.